sensor_id;sensor_type;location;lat;lon;timestamp;temperature;humidity
47174;DHT22;36730;49.036;9.094;2022-10-16T00:01:18;26.90;80.00
47174;DHT22;36730;49.036;9.094;2022-10-16T00:03:44;26.90;80.00
47174;DHT22;36730;49.036;9.094;2022-10-16T00:06:11;26.90;80.00
47174;DHT22;36730;49.036;9.094;2022-10-16T00:08:37;26.90;80.20
47174;DHT22;36730;49.036;9.094;2022-10-16T00:11:05;26.90;80.20
47174;DHT22;36730;49.036;9.094;2022-10-16T00:13:33;26.80;80.20
47174;DHT22;36730;49.036;9.094;2022-10-16T00:16:00;26.90;80.40
47174;DHT22;36730;49.036;9.094;2022-10-16T00:18:27;26.80;80.50
47174;DHT22;36730;49.036;9.094;2022-10-16T00:20:52;26.90;80.40
47174;DHT22;36730;49.036;9.094;2022-10-16T00:23:18;26.90;80.30
47174;DHT22;36730;49.036;9.094;2022-10-16T00:25:44;26.90;80.40
47174;DHT22;36730;49.036;9.094;2022-10-16T00:28:10;26.90;80.30
47174;DHT22;36730;49.036;9.094;2022-10-16T00:30:38;26.80;80.20
47174;DHT22;36730;49.036;9.094;2022-10-16T00:33:04;26.80;80.30
47174;DHT22;36730;49.036;9.094;2022-10-16T00:35:30;26.90;80.90
47174;DHT22;36730;49.036;9.094;2022-10-16T00:37:56;26.90;80.30
47174;DHT22;36730;49.036;9.094;2022-10-16T00:40:21;26.90;80.30
47174;DHT22;36730;49.036;9.094;2022-10-16T00:42:47;26.90;80.20
47174;DHT22;36730;49.036;9.094;2022-10-16T00:45:12;26.90;80.10
47174;DHT22;36730;49.036;9.094;2022-10-16T00:47:42;26.80;80.10
47174;DHT22;36730;49.036;9.094;2022-10-16T00:50:11;26.90;80.00
47174;DHT22;36730;49.036;9.094;2022-10-16T00:52:43;26.90;80.10
47174;DHT22;36730;49.036;9.094;2022-10-16T00:55:09;26.90;80.30
47174;DHT22;36730;49.036;9.094;2022-10-16T00:57:35;26.90;80.20
47174;DHT22;36730;49.036;9.094;2022-10-16T01:00:04;26.80;80.00
47174;DHT22;36730;49.036;9.094;2022-10-16T01:02:30;26.90;80.10
47174;DHT22;36730;49.036;9.094;2022-10-16T01:04:56;26.90;80.10
47174;DHT22;36730;49.036;9.094;2022-10-16T01:08:02;26.90;80.40
47174;DHT22;36730;49.036;9.094;2022-10-16T01:10:40;26.90;80.30
47174;DHT22;36730;49.036;9.094;2022-10-16T01:13:15;26.90;80.50
47174;DHT22;36730;49.036;9.094;2022-10-16T01:18:30;26.80;80.40
47174;DHT22;36730;49.036;9.094;2022-10-16T01:21:06;26.80;80.20
47174;DHT22;36730;49.036;9.094;2022-10-16T01:26:10;26.80;80.30
47174;DHT22;36730;49.036;9.094;2022-10-16T01:28:53;26.80;80.20
47174;DHT22;36730;49.036;9.094;2022-10-16T01:31:25;26.80;80.20
47174;DHT22;36730;49.036;9.094;2022-10-16T01:33:58;26.80;80.20
47174;DHT22;36730;49.036;9.094;2022-10-16T01:36:30;26.80;80.30
47174;DHT22;36730;49.036;9.094;2022-10-16T01:39:01;26.80;80.10
47174;DHT22;36730;49.036;9.094;2022-10-16T01:41:34;26.90;80.30
47174;DHT22;36730;49.036;9.094;2022-10-16T01:44:06;26.80;80.20
47174;DHT22;36730;49.036;9.094;2022-10-16T01:46:36;26.90;80.50
47174;DHT22;36730;49.036;9.094;2022-10-16T01:49:03;26.80;80.20
47174;DHT22;36730;49.036;9.094;2022-10-16T01:51:29;26.80;80.20
47174;DHT22;36730;49.036;9.094;2022-10-16T01:53:58;26.80;80.10
47174;DHT22;36730;49.036;9.094;2022-10-16T01:56:25;26.80;80.10
47174;DHT22;36730;49.036;9.094;2022-10-16T01:58:59;26.80;80.30
47174;DHT22;36730;49.036;9.094;2022-10-16T02:01:27;26.80;80.20
47174;DHT22;36730;49.036;9.094;2022-10-16T02:03:55;26.80;80.30
47174;DHT22;36730;49.036;9.094;2022-10-16T02:06:22;26.80;80.30
47174;DHT22;36730;49.036;9.094;2022-10-16T02:08:48;26.80;80.30
47174;DHT22;36730;49.036;9.094;2022-10-16T02:11:14;26.90;80.40
47174;DHT22;36730;49.036;9.094;2022-10-16T02:13:46;26.80;80.30
47174;DHT22;36730;49.036;9.094;2022-10-16T02:16:13;26.80;80.30
47174;DHT22;36730;49.036;9.094;2022-10-16T02:18:41;26.80;80.60
47174;DHT22;36730;49.036;9.094;2022-10-16T02:23:49;26.90;80.50
47174;DHT22;36730;49.036;9.094;2022-10-16T02:26:22;26.80;80.30
47174;DHT22;36730;49.036;9.094;2022-10-16T02:28:56;26.80;80.30
47174;DHT22;36730;49.036;9.094;2022-10-16T02:31:27;26.80;80.20
47174;DHT22;36730;49.036;9.094;2022-10-16T02:33:56;26.80;80.20
47174;DHT22;36730;49.036;9.094;2022-10-16T02:36:23;26.80;80.20
47174;DHT22;36730;49.036;9.094;2022-10-16T02:38:50;26.80;80.20
47174;DHT22;36730;49.036;9.094;2022-10-16T02:41:16;26.80;80.10
47174;DHT22;36730;49.036;9.094;2022-10-16T02:43:41;26.80;80.10
47174;DHT22;36730;49.036;9.094;2022-10-16T02:46:07;26.80;80.20
47174;DHT22;36730;49.036;9.094;2022-10-16T02:48:33;26.90;80.20
47174;DHT22;36730;49.036;9.094;2022-10-16T02:50:58;26.80;80.20
47174;DHT22;36730;49.036;9.094;2022-10-16T02:53:24;26.80;80.30
47174;DHT22;36730;49.036;9.094;2022-10-16T02:55:49;26.80;80.40
47174;DHT22;36730;49.036;9.094;2022-10-16T02:58:15;26.80;80.20
47174;DHT22;36730;49.036;9.094;2022-10-16T03:00:40;26.80;80.30
47174;DHT22;36730;49.036;9.094;2022-10-16T03:03:07;26.80;80.30
47174;DHT22;36730;49.036;9.094;2022-10-16T03:05:32;26.80;80.20
47174;DHT22;36730;49.036;9.094;2022-10-16T03:07:58;26.80;80.10
47174;DHT22;36730;49.036;9.094;2022-10-16T03:10:26;26.80;80.40
47174;DHT22;36730;49.036;9.094;2022-10-16T03:12:52;26.80;80.20
47174;DHT22;36730;49.036;9.094;2022-10-16T03:15:17;26.80;80.30
47174;DHT22;36730;49.036;9.094;2022-10-16T03:17:43;26.80;80.40
47174;DHT22;36730;49.036;9.094;2022-10-16T03:20:09;26.80;80.30
47174;DHT22;36730;49.036;9.094;2022-10-16T03:22:34;26.80;80.40
47174;DHT22;36730;49.036;9.094;2022-10-16T03:25:00;26.80;80.50
47174;DHT22;36730;49.036;9.094;2022-10-16T03:27:26;26.80;80.40
47174;DHT22;36730;49.036;9.094;2022-10-16T03:29:51;26.80;80.60
47174;DHT22;36730;49.036;9.094;2022-10-16T03:32:17;26.80;80.70
47174;DHT22;36730;49.036;9.094;2022-10-16T03:34:42;26.80;80.40
47174;DHT22;36730;49.036;9.094;2022-10-16T03:37:08;26.80;80.40
47174;DHT22;36730;49.036;9.094;2022-10-16T03:39:33;26.80;80.40
47174;DHT22;36730;49.036;9.094;2022-10-16T03:41:59;26.80;80.40
47174;DHT22;36730;49.036;9.094;2022-10-16T03:44:24;26.80;80.40
47174;DHT22;36730;49.036;9.094;2022-10-16T03:46:50;26.80;80.40
47174;DHT22;36730;49.036;9.094;2022-10-16T03:49:15;26.80;80.40
47174;DHT22;36730;49.036;9.094;2022-10-16T03:51:41;26.80;80.50
47174;DHT22;36730;49.036;9.094;2022-10-16T03:54:06;26.80;80.40
47174;DHT22;36730;49.036;9.094;2022-10-16T03:56:32;26.70;80.50
47174;DHT22;36730;49.036;9.094;2022-10-16T03:58:58;26.80;80.40
47174;DHT22;36730;49.036;9.094;2022-10-16T04:01:23;26.70;80.50
47174;DHT22;36730;49.036;9.094;2022-10-16T04:03:49;26.70;81.00
47174;DHT22;36730;49.036;9.094;2022-10-16T04:06:14;26.80;80.60
47174;DHT22;36730;49.036;9.094;2022-10-16T04:08:42;26.70;80.60
47174;DHT22;36730;49.036;9.094;2022-10-16T04:11:08;26.70;80.60
47174;DHT22;36730;49.036;9.094;2022-10-16T04:13:33;26.70;80.50
47174;DHT22;36730;49.036;9.094;2022-10-16T04:15:59;26.70;80.50
47174;DHT22;36730;49.036;9.094;2022-10-16T04:18:25;26.70;80.40
47174;DHT22;36730;49.036;9.094;2022-10-16T04:20:53;26.70;80.40
47174;DHT22;36730;49.036;9.094;2022-10-16T04:23:18;26.70;80.40
47174;DHT22;36730;49.036;9.094;2022-10-16T04:25:44;26.70;80.40
47174;DHT22;36730;49.036;9.094;2022-10-16T04:28:09;26.70;80.60
47174;DHT22;36730;49.036;9.094;2022-10-16T04:30:37;26.70;80.50
47174;DHT22;36730;49.036;9.094;2022-10-16T04:33:02;26.70;80.50
47174;DHT22;36730;49.036;9.094;2022-10-16T04:35:28;26.70;80.50
47174;DHT22;36730;49.036;9.094;2022-10-16T04:37:53;26.70;80.50
47174;DHT22;36730;49.036;9.094;2022-10-16T04:40:19;26.70;80.60
47174;DHT22;36730;49.036;9.094;2022-10-16T04:42:44;26.70;80.60
47174;DHT22;36730;49.036;9.094;2022-10-16T04:45:10;26.70;80.60
47174;DHT22;36730;49.036;9.094;2022-10-16T04:47:35;26.60;80.50
47174;DHT22;36730;49.036;9.094;2022-10-16T04:50:01;26.60;80.40
47174;DHT22;36730;49.036;9.094;2022-10-16T04:52:28;26.70;80.50
47174;DHT22;36730;49.036;9.094;2022-10-16T04:54:53;26.60;80.40
47174;DHT22;36730;49.036;9.094;2022-10-16T04:57:19;26.60;80.50
47174;DHT22;36730;49.036;9.094;2022-10-16T04:59:45;26.60;80.60
47174;DHT22;36730;49.036;9.094;2022-10-16T05:02:10;26.60;80.60
47174;DHT22;36730;49.036;9.094;2022-10-16T05:04:36;26.60;80.50
47174;DHT22;36730;49.036;9.094;2022-10-16T05:07:01;26.60;80.60
47174;DHT22;36730;49.036;9.094;2022-10-16T05:09:27;26.60;80.80
47174;DHT22;36730;49.036;9.094;2022-10-16T05:11:52;26.60;80.70
47174;DHT22;36730;49.036;9.094;2022-10-16T05:14:18;26.60;80.70
47174;DHT22;36730;49.036;9.094;2022-10-16T05:16:44;26.60;80.50
47174;DHT22;36730;49.036;9.094;2022-10-16T05:19:09;26.60;80.60
47174;DHT22;36730;49.036;9.094;2022-10-16T05:21:35;26.60;80.50
47174;DHT22;36730;49.036;9.094;2022-10-16T05:24:01;26.60;80.60
47174;DHT22;36730;49.036;9.094;2022-10-16T05:26:26;26.60;80.70
47174;DHT22;36730;49.036;9.094;2022-10-16T05:28:52;26.60;80.70
47174;DHT22;36730;49.036;9.094;2022-10-16T05:31:17;26.60;80.60
47174;DHT22;36730;49.036;9.094;2022-10-16T05:33:43;26.60;80.50
47174;DHT22;36730;49.036;9.094;2022-10-16T05:36:09;26.60;80.70
47174;DHT22;36730;49.036;9.094;2022-10-16T05:38:36;26.50;80.60
47174;DHT22;36730;49.036;9.094;2022-10-16T05:41:03;26.50;80.60
47174;DHT22;36730;49.036;9.094;2022-10-16T05:43:29;26.60;80.40
47174;DHT22;36730;49.036;9.094;2022-10-16T05:45:57;26.50;80.40
47174;DHT22;36730;49.036;9.094;2022-10-16T05:48:23;26.60;80.40
47174;DHT22;36730;49.036;9.094;2022-10-16T05:50:57;26.50;80.40
47174;DHT22;36730;49.036;9.094;2022-10-16T05:53:22;26.50;80.30
47174;DHT22;36730;49.036;9.094;2022-10-16T05:55:54;26.50;80.40
47174;DHT22;36730;49.036;9.094;2022-10-16T05:58:21;26.50;80.50
47174;DHT22;36730;49.036;9.094;2022-10-16T06:00:58;26.50;80.50
47174;DHT22;36730;49.036;9.094;2022-10-16T06:03:24;26.50;80.30
47174;DHT22;36730;49.036;9.094;2022-10-16T06:05:50;26.50;80.50
47174;DHT22;36730;49.036;9.094;2022-10-16T06:08:18;26.50;80.50
47174;DHT22;36730;49.036;9.094;2022-10-16T06:10:44;26.50;80.40
47174;DHT22;36730;49.036;9.094;2022-10-16T06:13:11;26.50;80.40
47174;DHT22;36730;49.036;9.094;2022-10-16T06:15:36;26.50;80.40
47174;DHT22;36730;49.036;9.094;2022-10-16T06:18:04;26.40;80.30
47174;DHT22;36730;49.036;9.094;2022-10-16T06:20:30;26.50;80.50
47174;DHT22;36730;49.036;9.094;2022-10-16T06:22:55;26.40;80.40
47174;DHT22;36730;49.036;9.094;2022-10-16T06:25:21;26.50;80.50
47174;DHT22;36730;49.036;9.094;2022-10-16T06:27:47;26.50;80.40
47174;DHT22;36730;49.036;9.094;2022-10-16T06:30:12;26.40;80.40
47174;DHT22;36730;49.036;9.094;2022-10-16T06:32:38;26.50;80.40
47174;DHT22;36730;49.036;9.094;2022-10-16T06:35:04;26.50;80.40
47174;DHT22;36730;49.036;9.094;2022-10-16T06:37:29;26.40;80.30
47174;DHT22;36730;49.036;9.094;2022-10-16T06:39:55;26.50;80.40
47174;DHT22;36730;49.036;9.094;2022-10-16T06:42:20;26.50;80.40
47174;DHT22;36730;49.036;9.094;2022-10-16T06:44:46;26.40;80.30
47174;DHT22;36730;49.036;9.094;2022-10-16T06:47:11;26.50;80.40
47174;DHT22;36730;49.036;9.094;2022-10-16T06:49:37;26.40;80.40
47174;DHT22;36730;49.036;9.094;2022-10-16T06:52:03;26.50;80.40
47174;DHT22;36730;49.036;9.094;2022-10-16T06:54:28;26.50;80.30
47174;DHT22;36730;49.036;9.094;2022-10-16T06:56:54;26.50;80.40
47174;DHT22;36730;49.036;9.094;2022-10-16T06:59:21;26.50;80.40
47174;DHT22;36730;49.036;9.094;2022-10-16T07:01:47;26.50;80.20
47174;DHT22;36730;49.036;9.094;2022-10-16T07:04:12;26.40;79.40
47174;DHT22;36730;49.036;9.094;2022-10-16T07:06:38;26.40;80.00
47174;DHT22;36730;49.036;9.094;2022-10-16T07:09:06;26.30;79.80
47174;DHT22;36730;49.036;9.094;2022-10-16T07:11:33;26.30;80.00
47174;DHT22;36730;49.036;9.094;2022-10-16T07:13:58;26.30;79.10
47174;DHT22;36730;49.036;9.094;2022-10-16T07:16:24;26.20;79.10
47174;DHT22;36730;49.036;9.094;2022-10-16T07:18:51;26.10;79.20
47174;DHT22;36730;49.036;9.094;2022-10-16T07:21:22;26.10;79.30
47174;DHT22;36730;49.036;9.094;2022-10-16T07:23:55;26.10;79.30
47174;DHT22;36730;49.036;9.094;2022-10-16T07:26:22;26.10;79.20
47174;DHT22;36730;49.036;9.094;2022-10-16T07:28:47;26.20;79.10
47174;DHT22;36730;49.036;9.094;2022-10-16T07:31:14;26.20;79.10
47174;DHT22;36730;49.036;9.094;2022-10-16T07:33:41;26.20;79.30
47174;DHT22;36730;49.036;9.094;2022-10-16T07:36:08;26.20;79.40
47174;DHT22;36730;49.036;9.094;2022-10-16T07:38:34;26.20;79.40
47174;DHT22;36730;49.036;9.094;2022-10-16T07:41:02;26.20;79.40
47174;DHT22;36730;49.036;9.094;2022-10-16T07:43:28;26.30;79.50
47174;DHT22;36730;49.036;9.094;2022-10-16T07:45:54;26.30;79.70
47174;DHT22;36730;49.036;9.094;2022-10-16T07:48:22;26.30;79.50
47174;DHT22;36730;49.036;9.094;2022-10-16T07:50:47;26.30;79.40
47174;DHT22;36730;49.036;9.094;2022-10-16T07:53:13;26.30;79.50
47174;DHT22;36730;49.036;9.094;2022-10-16T07:55:39;26.30;79.50
47174;DHT22;36730;49.036;9.094;2022-10-16T07:58:05;26.40;79.50
47174;DHT22;36730;49.036;9.094;2022-10-16T08:00:31;26.40;79.50
47174;DHT22;36730;49.036;9.094;2022-10-16T08:02:57;26.40;79.50
47174;DHT22;36730;49.036;9.094;2022-10-16T08:05:30;26.40;79.60
47174;DHT22;36730;49.036;9.094;2022-10-16T08:07:56;26.40;79.50
47174;DHT22;36730;49.036;9.094;2022-10-16T08:10:24;26.40;79.50
47174;DHT22;36730;49.036;9.094;2022-10-16T08:12:50;26.40;79.60
47174;DHT22;36730;49.036;9.094;2022-10-16T08:15:16;26.50;79.60
47174;DHT22;36730;49.036;9.094;2022-10-16T08:17:42;26.40;79.50
47174;DHT22;36730;49.036;9.094;2022-10-16T08:20:08;26.50;79.60
47174;DHT22;36730;49.036;9.094;2022-10-16T08:22:34;26.50;79.40
47174;DHT22;36730;49.036;9.094;2022-10-16T08:24:59;26.50;79.40
47174;DHT22;36730;49.036;9.094;2022-10-16T08:27:25;26.50;79.30
47174;DHT22;36730;49.036;9.094;2022-10-16T08:29:50;26.60;79.40
47174;DHT22;36730;49.036;9.094;2022-10-16T08:32:16;26.50;79.30
47174;DHT22;36730;49.036;9.094;2022-10-16T08:34:41;26.60;79.30
47174;DHT22;36730;49.036;9.094;2022-10-16T08:37:07;26.60;79.40
47174;DHT22;36730;49.036;9.094;2022-10-16T08:39:36;26.60;79.50
47174;DHT22;36730;49.036;9.094;2022-10-16T08:42:11;26.60;79.40
47174;DHT22;36730;49.036;9.094;2022-10-16T08:44:50;26.60;79.50
47174;DHT22;36730;49.036;9.094;2022-10-16T08:47:26;26.60;79.50
47174;DHT22;36730;49.036;9.094;2022-10-16T08:49:59;26.60;79.40
47174;DHT22;36730;49.036;9.094;2022-10-16T08:52:34;26.60;79.50
47174;DHT22;36730;49.036;9.094;2022-10-16T08:55:01;26.70;79.50
47174;DHT22;36730;49.036;9.094;2022-10-16T08:57:27;26.70;79.60
47174;DHT22;36730;49.036;9.094;2022-10-16T08:59:53;26.70;79.40
47174;DHT22;36730;49.036;9.094;2022-10-16T09:02:28;26.70;79.50
47174;DHT22;36730;49.036;9.094;2022-10-16T09:05:31;26.70;79.20
47174;DHT22;36730;49.036;9.094;2022-10-16T09:10:59;26.70;79.50
47174;DHT22;36730;49.036;9.094;2022-10-16T09:13:52;26.70;79.20
47174;DHT22;36730;49.036;9.094;2022-10-16T09:16:24;26.70;79.40
47174;DHT22;36730;49.036;9.094;2022-10-16T09:21:35;26.80;79.30
47174;DHT22;36730;49.036;9.094;2022-10-16T09:24:23;26.80;79.30
47174;DHT22;36730;49.036;9.094;2022-10-16T09:26:50;26.80;79.20
47174;DHT22;36730;49.036;9.094;2022-10-16T09:29:16;26.80;79.60
47174;DHT22;36730;49.036;9.094;2022-10-16T09:31:43;26.80;79.50
47174;DHT22;36730;49.036;9.094;2022-10-16T09:34:30;26.80;79.60
47174;DHT22;36730;49.036;9.094;2022-10-16T09:36:58;26.90;79.40
47174;DHT22;36730;49.036;9.094;2022-10-16T09:39:24;26.90;79.60
47174;DHT22;36730;49.036;9.094;2022-10-16T09:41:50;26.90;79.30
47174;DHT22;36730;49.036;9.094;2022-10-16T09:44:24;26.90;79.30
47174;DHT22;36730;49.036;9.094;2022-10-16T09:47:05;27.00;79.40
47174;DHT22;36730;49.036;9.094;2022-10-16T09:49:31;27.00;79.30
47174;DHT22;36730;49.036;9.094;2022-10-16T09:52:13;27.00;79.00
47174;DHT22;36730;49.036;9.094;2022-10-16T09:54:49;27.00;78.60
47174;DHT22;36730;49.036;9.094;2022-10-16T09:57:15;27.00;78.50
47174;DHT22;36730;49.036;9.094;2022-10-16T10:02:14;27.10;78.40
47174;DHT22;36730;49.036;9.094;2022-10-16T10:04:44;27.20;78.40
47174;DHT22;36730;49.036;9.094;2022-10-16T10:07:24;27.20;78.10
47174;DHT22;36730;49.036;9.094;2022-10-16T10:09:51;27.20;77.90
47174;DHT22;36730;49.036;9.094;2022-10-16T10:12:23;27.20;77.90
47174;DHT22;36730;49.036;9.094;2022-10-16T10:14:54;27.30;77.80
47174;DHT22;36730;49.036;9.094;2022-10-16T10:17:25;27.20;77.50
47174;DHT22;36730;49.036;9.094;2022-10-16T10:20:33;27.30;77.60
47174;DHT22;36730;49.036;9.094;2022-10-16T10:23:13;27.30;77.90
47174;DHT22;36730;49.036;9.094;2022-10-16T10:31:53;27.40;77.20
47174;DHT22;36730;49.036;9.094;2022-10-16T10:34:56;27.40;77.20
47174;DHT22;36730;49.036;9.094;2022-10-16T10:37:50;27.40;77.20
47174;DHT22;36730;49.036;9.094;2022-10-16T10:46:50;27.50;77.10
47174;DHT22;36730;49.036;9.094;2022-10-16T10:57:55;27.50;77.00
47174;DHT22;36730;49.036;9.094;2022-10-16T11:00:30;27.50;77.10
47174;DHT22;36730;49.036;9.094;2022-10-16T11:06:07;27.50;76.80
47174;DHT22;36730;49.036;9.094;2022-10-16T11:11:45;27.60;76.70
47174;DHT22;36730;49.036;9.094;2022-10-16T11:14:19;27.60;76.60
47174;DHT22;36730;49.036;9.094;2022-10-16T11:19:22;27.70;76.50
47174;DHT22;36730;49.036;9.094;2022-10-16T11:22:19;27.70;76.40
47174;DHT22;36730;49.036;9.094;2022-10-16T11:27:40;27.80;76.30
47174;DHT22;36730;49.036;9.094;2022-10-16T11:30:14;27.80;76.10
47174;DHT22;36730;49.036;9.094;2022-10-16T11:33:10;27.80;75.90
47174;DHT22;36730;49.036;9.094;2022-10-16T11:40:43;27.80;76.00
47174;DHT22;36730;49.036;9.094;2022-10-16T11:43:28;27.80;75.90
47174;DHT22;36730;49.036;9.094;2022-10-16T11:45:58;27.90;75.90
47174;DHT22;36730;49.036;9.094;2022-10-16T11:48:55;27.90;75.90
47174;DHT22;36730;49.036;9.094;2022-10-16T11:51:45;27.90;76.30
47174;DHT22;36730;49.036;9.094;2022-10-16T11:54:41;27.90;75.70
47174;DHT22;36730;49.036;9.094;2022-10-16T11:57:13;27.90;75.50
47174;DHT22;36730;49.036;9.094;2022-10-16T11:59:46;27.90;75.60
47174;DHT22;36730;49.036;9.094;2022-10-16T12:05:14;28.00;75.40
47174;DHT22;36730;49.036;9.094;2022-10-16T12:08:04;28.00;75.30
47174;DHT22;36730;49.036;9.094;2022-10-16T12:10:31;28.00;75.30
47174;DHT22;36730;49.036;9.094;2022-10-16T12:13:02;28.00;75.50
47174;DHT22;36730;49.036;9.094;2022-10-16T12:15:29;28.00;75.40
47174;DHT22;36730;49.036;9.094;2022-10-16T12:17:55;28.10;75.30
47174;DHT22;36730;49.036;9.094;2022-10-16T12:20:32;28.00;75.40
47174;DHT22;36730;49.036;9.094;2022-10-16T12:25:34;28.10;75.30
47174;DHT22;36730;49.036;9.094;2022-10-16T12:28:19;28.10;75.10
47174;DHT22;36730;49.036;9.094;2022-10-16T12:30:59;28.10;75.00
47174;DHT22;36730;49.036;9.094;2022-10-16T12:33:31;28.10;75.00
47174;DHT22;36730;49.036;9.094;2022-10-16T12:36:00;28.10;75.60
47174;DHT22;36730;49.036;9.094;2022-10-16T12:38:48;28.20;75.00
47174;DHT22;36730;49.036;9.094;2022-10-16T12:41:30;28.20;74.90
47174;DHT22;36730;49.036;9.094;2022-10-16T12:43:57;28.20;74.70
47174;DHT22;36730;49.036;9.094;2022-10-16T12:46:24;28.20;74.90
47174;DHT22;36730;49.036;9.094;2022-10-16T12:48:50;28.20;74.80
47174;DHT22;36730;49.036;9.094;2022-10-16T12:53:59;28.30;74.70
47174;DHT22;36730;49.036;9.094;2022-10-16T13:07:38;28.30;74.50
47174;DHT22;36730;49.036;9.094;2022-10-16T13:13:12;28.30;74.70
47174;DHT22;36730;49.036;9.094;2022-10-16T13:26:43;28.30;74.80
47174;DHT22;36730;49.036;9.094;2022-10-16T13:29:12;28.30;74.70
47174;DHT22;36730;49.036;9.094;2022-10-16T13:31:39;28.30;74.70
47174;DHT22;36730;49.036;9.094;2022-10-16T13:34:06;28.30;74.70
47174;DHT22;36730;49.036;9.094;2022-10-16T13:39:15;28.30;74.50
47174;DHT22;36730;49.036;9.094;2022-10-16T13:41:46;28.30;74.50
47174;DHT22;36730;49.036;9.094;2022-10-16T13:44:21;28.40;74.60
47174;DHT22;36730;49.036;9.094;2022-10-16T13:46:47;28.30;74.40
47174;DHT22;36730;49.036;9.094;2022-10-16T13:49:22;28.40;74.60
47174;DHT22;36730;49.036;9.094;2022-10-16T13:51:58;28.40;74.60
47174;DHT22;36730;49.036;9.094;2022-10-16T13:54:26;28.40;74.50
47174;DHT22;36730;49.036;9.094;2022-10-16T13:56:52;28.40;74.60
47174;DHT22;36730;49.036;9.094;2022-10-16T13:59:34;28.40;74.70
47174;DHT22;36730;49.036;9.094;2022-10-16T14:02:00;28.40;74.60
47174;DHT22;36730;49.036;9.094;2022-10-16T14:04:32;28.40;74.80
47174;DHT22;36730;49.036;9.094;2022-10-16T14:06:58;28.40;74.80
47174;DHT22;36730;49.036;9.094;2022-10-16T14:09:24;28.30;74.70
47174;DHT22;36730;49.036;9.094;2022-10-16T14:12:03;28.40;74.80
47174;DHT22;36730;49.036;9.094;2022-10-16T14:14:41;28.40;74.60
47174;DHT22;36730;49.036;9.094;2022-10-16T14:17:22;28.40;74.50
47174;DHT22;36730;49.036;9.094;2022-10-16T14:19:49;28.40;74.60
47174;DHT22;36730;49.036;9.094;2022-10-16T14:24:59;28.40;74.50
47174;DHT22;36730;49.036;9.094;2022-10-16T14:27:35;28.40;74.70
47174;DHT22;36730;49.036;9.094;2022-10-16T14:30:12;28.40;74.50
47174;DHT22;36730;49.036;9.094;2022-10-16T14:32:40;28.40;74.60
47174;DHT22;36730;49.036;9.094;2022-10-16T14:35:42;28.40;74.80
47174;DHT22;36730;49.036;9.094;2022-10-16T14:38:18;28.40;74.60
47174;DHT22;36730;49.036;9.094;2022-10-16T14:40:47;28.40;74.70
47174;DHT22;36730;49.036;9.094;2022-10-16T14:43:21;28.40;74.80
47174;DHT22;36730;49.036;9.094;2022-10-16T14:45:52;28.40;74.60
47174;DHT22;36730;49.036;9.094;2022-10-16T14:48:19;28.40;74.70
47174;DHT22;36730;49.036;9.094;2022-10-16T14:50:46;28.40;74.80
47174;DHT22;36730;49.036;9.094;2022-10-16T14:53:12;28.40;74.80
47174;DHT22;36730;49.036;9.094;2022-10-16T14:55:39;28.40;74.70
47174;DHT22;36730;49.036;9.094;2022-10-16T14:58:07;28.40;74.80
47174;DHT22;36730;49.036;9.094;2022-10-16T15:00:35;28.50;74.80
47174;DHT22;36730;49.036;9.094;2022-10-16T15:03:00;28.40;74.80
47174;DHT22;36730;49.036;9.094;2022-10-16T15:05:27;28.40;74.80
47174;DHT22;36730;49.036;9.094;2022-10-16T15:07:54;28.40;74.90
47174;DHT22;36730;49.036;9.094;2022-10-16T15:10:21;28.40;74.90
47174;DHT22;36730;49.036;9.094;2022-10-16T15:12:48;28.40;74.90
47174;DHT22;36730;49.036;9.094;2022-10-16T15:17:52;28.40;74.80
47174;DHT22;36730;49.036;9.094;2022-10-16T15:20:20;28.40;74.80
47174;DHT22;36730;49.036;9.094;2022-10-16T15:22:46;28.40;74.90
47174;DHT22;36730;49.036;9.094;2022-10-16T15:27:55;28.40;74.90
47174;DHT22;36730;49.036;9.094;2022-10-16T15:30:21;28.40;75.00
47174;DHT22;36730;49.036;9.094;2022-10-16T15:32:47;28.40;75.00
47174;DHT22;36730;49.036;9.094;2022-10-16T15:35:12;28.40;75.00
47174;DHT22;36730;49.036;9.094;2022-10-16T15:37:38;28.50;75.00
47174;DHT22;36730;49.036;9.094;2022-10-16T15:40:04;28.40;74.90
47174;DHT22;36730;49.036;9.094;2022-10-16T15:42:29;28.50;75.00
47174;DHT22;36730;49.036;9.094;2022-10-16T15:44:55;28.50;75.10
47174;DHT22;36730;49.036;9.094;2022-10-16T15:47:20;28.50;75.10
47174;DHT22;36730;49.036;9.094;2022-10-16T15:49:46;28.50;75.10
47174;DHT22;36730;49.036;9.094;2022-10-16T15:52:12;28.50;75.00
47174;DHT22;36730;49.036;9.094;2022-10-16T15:54:37;28.50;75.00
47174;DHT22;36730;49.036;9.094;2022-10-16T15:57:03;28.50;75.00
47174;DHT22;36730;49.036;9.094;2022-10-16T15:59:29;28.50;75.70
47174;DHT22;36730;49.036;9.094;2022-10-16T16:01:54;28.40;75.10
47174;DHT22;36730;49.036;9.094;2022-10-16T16:04:20;28.50;75.30
47174;DHT22;36730;49.036;9.094;2022-10-16T16:06:45;28.40;75.30
47174;DHT22;36730;49.036;9.094;2022-10-16T16:09:12;28.40;75.30
47174;DHT22;36730;49.036;9.094;2022-10-16T16:11:37;28.40;75.40
47174;DHT22;36730;49.036;9.094;2022-10-16T16:14:08;28.40;75.30
47174;DHT22;36730;49.036;9.094;2022-10-16T16:16:36;28.40;75.40
47174;DHT22;36730;49.036;9.094;2022-10-16T16:19:04;28.40;75.50
47174;DHT22;36730;49.036;9.094;2022-10-16T16:21:31;28.40;75.70
47174;DHT22;36730;49.036;9.094;2022-10-16T16:23:57;28.40;75.70
47174;DHT22;36730;49.036;9.094;2022-10-16T16:26:28;28.40;75.70
47174;DHT22;36730;49.036;9.094;2022-10-16T16:28:57;28.40;75.70
47174;DHT22;36730;49.036;9.094;2022-10-16T16:31:24;28.40;75.80
47174;DHT22;36730;49.036;9.094;2022-10-16T16:33:51;28.40;75.90
47174;DHT22;36730;49.036;9.094;2022-10-16T16:36:17;28.40;75.90
47174;DHT22;36730;49.036;9.094;2022-10-16T16:38:43;28.30;75.90
47174;DHT22;36730;49.036;9.094;2022-10-16T16:41:13;28.40;76.00
47174;DHT22;36730;49.036;9.094;2022-10-16T16:43:39;28.40;76.00
47174;DHT22;36730;49.036;9.094;2022-10-16T16:46:04;28.30;76.00
47174;DHT22;36730;49.036;9.094;2022-10-16T16:48:31;28.30;76.10
47174;DHT22;36730;49.036;9.094;2022-10-16T16:50:56;28.30;76.10
47174;DHT22;36730;49.036;9.094;2022-10-16T16:53:22;28.30;76.20
47174;DHT22;36730;49.036;9.094;2022-10-16T16:55:47;28.30;76.30
47174;DHT22;36730;49.036;9.094;2022-10-16T16:58:13;28.40;76.50
47174;DHT22;36730;49.036;9.094;2022-10-16T17:00:45;28.30;76.40
47174;DHT22;36730;49.036;9.094;2022-10-16T17:03:11;28.30;76.40
47174;DHT22;36730;49.036;9.094;2022-10-16T17:05:36;28.30;76.40
47174;DHT22;36730;49.036;9.094;2022-10-16T17:08:02;28.30;76.50
47174;DHT22;36730;49.036;9.094;2022-10-16T17:10:27;28.30;76.50
47174;DHT22;36730;49.036;9.094;2022-10-16T17:12:53;28.30;76.60
47174;DHT22;36730;49.036;9.094;2022-10-16T17:15:19;28.30;76.60
47174;DHT22;36730;49.036;9.094;2022-10-16T17:17:44;28.30;76.70
47174;DHT22;36730;49.036;9.094;2022-10-16T17:20:10;28.30;76.70